Time;durP1;ratioP1;P1;durP2;ratioP2;P2;SDS_P1;SDS_P2;PMS_P1;PMS_P2;Temp;Humidity;BMP_temperature;BMP_pressure;BME280_temperature;BME280_humidity;BME280_pressure;Samples;Min_cycle;Max_cycle;Signal;HPM_P1;HPM_P2
2022/07/18 00:01:00;;;;;;;4.53;0.98;;;;;;;;;;5033522;28;20025;-38
2022/07/18 00:03:25;;;;;;;2.53;1.10;;;;;;;;;;5033624;28;20018;-37
2022/07/18 00:05:51;;;;;;;5.43;1.60;;;;;;;;;;5034125;28;20018;-37
2022/07/18 00:08:16;;;;;;;2.97;1.27;;;;;;;;;;5032161;28;20115;-39
2022/07/18 00:10:42;;;;;;;7.22;1.30;;;;;;;;;;5032761;28;20038;-37
2022/07/18 00:13:07;;;;;;;6.07;1.20;;;;;;;;;;5033472;28;20028;-39
2022/07/18 00:15:32;;;;;;;2.75;1.33;;;;;;;;;;5032264;28;20018;-37
2022/07/18 00:17:58;;;;;;;6.00;0.95;;;;;;;;;;5032124;28;20313;-38
2022/07/18 00:20:23;;;;;;;4.43;1.45;;;;;;;;;;5033409;28;20022;-37
2022/07/18 00:22:48;;;;;;;9.75;1.55;;;;;;;;;;5033201;28;20021;-37
2022/07/18 00:25:14;;;;;;;2.90;1.42;;;;;;;;;;5032627;28;20032;-37
2022/07/18 00:27:39;;;;;;;6.78;2.95;;;;;;;;;;5032019;28;20032;-37
2022/07/18 00:30:05;;;;;;;3.85;1.42;;;;;;;;;;5031691;28;20091;-37
2022/07/18 00:32:31;;;;;;;8.57;1.50;;;;;;;;;;5031867;28;20022;-38
2022/07/18 00:34:56;;;;;;;4.20;1.50;;;;;;;;;;5031864;28;20048;-41
2022/07/18 00:37:21;;;;;;;2.75;1.40;;;;;;;;;;5031325;28;20497;-37
2022/07/18 00:39:47;;;;;;;5.03;1.42;;;;;;;;;;5031346;28;20025;-37
2022/07/18 00:42:12;;;;;;;5.20;1.45;;;;;;;;;;5033006;28;20025;-37
2022/07/18 00:44:37;;;;;;;3.65;1.20;;;;;;;;;;5031746;28;20488;-38
2022/07/18 00:47:03;;;;;;;5.50;1.48;;;;;;;;;;5032910;28;20097;-37
2022/07/18 00:49:29;;;;;;;4.47;1.63;;;;;;;;;;5031311;28;20041;-37
2022/07/18 00:51:54;;;;;;;4.30;1.67;;;;;;;;;;5032753;28;20021;-38
2022/07/18 00:54:20;;;;;;;4.07;1.52;;;;;;;;;;5032486;28;20041;-38
2022/07/18 00:56:47;;;;;;;5.13;1.52;;;;;;;;;;5032975;28;20048;-37
2022/07/18 00:59:13;;;;;;;6.45;1.35;;;;;;;;;;5031265;28;20034;-37
2022/07/18 01:01:47;;;;;;;6.60;1.63;;;;;;;;;;5032681;28;20032;-37
2022/07/18 01:04:14;;;;;;;8.75;1.65;;;;;;;;;;5032603;28;20089;-37
2022/07/18 01:06:39;;;;;;;8.63;1.40;;;;;;;;;;5032281;28;20069;-38
2022/07/18 01:09:06;;;;;;;7.18;1.60;;;;;;;;;;5032275;28;20021;-37
2022/07/18 01:11:31;;;;;;;5.72;1.27;;;;;;;;;;5032507;28;20029;-37
2022/07/18 01:13:57;;;;;;;2.90;1.20;;;;;;;;;;5032140;28;20025;-39
2022/07/18 01:16:23;;;;;;;4.47;1.25;;;;;;;;;;5032606;28;20021;-37
2022/07/18 01:18:49;;;;;;;9.48;1.52;;;;;;;;;;5031043;28;20048;-38
2022/07/18 01:21:14;;;;;;;3.97;1.40;;;;;;;;;;5031179;28;20017;-37
2022/07/18 01:23:40;;;;;;;10.27;2.15;;;;;;;;;;5031980;28;20033;-38
2022/07/18 01:26:05;;;;;;;6.05;1.35;;;;;;;;;;5032033;28;20021;-37
2022/07/18 01:28:31;;;;;;;4.05;1.63;;;;;;;;;;5031066;28;20020;-37
2022/07/18 01:30:56;;;;;;;8.32;1.50;;;;;;;;;;5032045;28;20037;-38
2022/07/18 01:33:22;;;;;;;5.25;1.85;;;;;;;;;;5031922;28;20376;-37
2022/07/18 01:35:47;;;;;;;9.20;1.38;;;;;;;;;;5030736;28;20025;-37
2022/07/18 01:38:12;;;;;;;4.32;1.50;;;;;;;;;;5030186;28;20102;-38
2022/07/18 01:40:38;;;;;;;4.68;1.20;;;;;;;;;;5030981;28;20487;-37
2022/07/18 01:43:03;;;;;;;3.95;1.23;;;;;;;;;;5032131;28;20014;-41
2022/07/18 01:45:28;;;;;;;2.25;1.35;;;;;;;;;;5030310;28;20045;-37
2022/07/18 01:47:54;;;;;;;5.53;2.67;;;;;;;;;;5031905;28;20496;-37
2022/07/18 01:50:19;;;;;;;5.85;1.50;;;;;;;;;;5031457;28;20112;-38
2022/07/18 01:52:45;;;;;;;1.35;0.93;;;;;;;;;;5031522;28;20044;-42
2022/07/18 01:55:10;;;;;;;3.40;1.25;;;;;;;;;;5031557;28;20022;-38
2022/07/18 01:57:36;;;;;;;3.60;1.25;;;;;;;;;;5031940;28;20468;-37
2022/07/18 02:00:03;;;;;;;3.92;1.20;;;;;;;;;;5031540;28;20025;-37
2022/07/18 02:02:28;;;;;;;6.60;2.40;;;;;;;;;;5030087;28;20025;-37
2022/07/18 02:04:59;;;;;;;2.60;1.25;;;;;;;;;;5032024;28;20018;-38
2022/07/18 02:07:25;;;;;;;1.67;1.10;;;;;;;;;;5031894;28;20108;-37
2022/07/18 02:09:50;;;;;;;2.35;1.08;;;;;;;;;;5030243;28;20141;-37
2022/07/18 02:12:16;;;;;;;6.03;1.10;;;;;;;;;;5031222;28;20021;-39
2022/07/18 02:14:41;;;;;;;5.18;1.60;;;;;;;;;;5030083;28;20112;-37
2022/07/18 02:17:07;;;;;;;6.60;1.17;;;;;;;;;;5031941;28;20048;-39
2022/07/18 02:19:32;;;;;;;6.60;1.27;;;;;;;;;;5030149;28;20032;-37
2022/07/18 02:21:57;;;;;;;6.63;1.52;;;;;;;;;;5031483;28;20025;-37
2022/07/18 02:24:23;;;;;;;11.48;1.40;;;;;;;;;;5030032;28;20025;-37
2022/07/18 02:26:48;;;;;;;9.45;1.42;;;;;;;;;;5031416;28;20025;-37
2022/07/18 02:29:13;;;;;;;8.27;1.40;;;;;;;;;;5030961;28;20101;-38
2022/07/18 02:31:38;;;;;;;6.38;1.70;;;;;;;;;;5030121;28;20124;-37
2022/07/18 02:34:09;;;;;;;4.88;1.10;;;;;;;;;;5034950;28;20021;-37
2022/07/18 02:36:38;;;;;;;4.32;1.13;;;;;;;;;;5035259;28;20022;-37
2022/07/18 02:39:05;;;;;;;6.28;1.42;;;;;;;;;;5034943;28;20026;-37
2022/07/18 02:41:30;;;;;;;4.78;1.10;;;;;;;;;;5035175;28;20042;-37
2022/07/18 02:43:55;;;;;;;5.30;1.40;;;;;;;;;;5033926;28;20655;-41
2022/07/18 02:46:20;;;;;;;7.30;2.20;;;;;;;;;;5033741;28;20045;-37
2022/07/18 02:48:46;;;;;;;8.95;1.27;;;;;;;;;;5034969;28;20093;-37
2022/07/18 02:51:11;;;;;;;7.40;1.30;;;;;;;;;;5034678;28;20527;-37
2022/07/18 02:53:36;;;;;;;17.98;2.60;;;;;;;;;;5034782;28;20100;-40
2022/07/18 02:56:02;;;;;;;6.47;1.65;;;;;;;;;;5033721;28;20124;-37
2022/07/18 02:58:27;;;;;;;5.28;1.50;;;;;;;;;;5035173;28;20063;-37
2022/07/18 03:00:53;;;;;;;10.18;1.45;;;;;;;;;;5034990;28;20379;-39
2022/07/18 03:03:18;;;;;;;5.25;1.25;;;;;;;;;;5033184;28;20017;-37
2022/07/18 03:05:43;;;;;;;8.85;3.50;;;;;;;;;;5034806;28;20068;-40
2022/07/18 03:08:09;;;;;;;7.82;1.80;;;;;;;;;;5034553;28;20021;-37
2022/07/18 03:10:34;;;;;;;5.35;1.50;;;;;;;;;;5033442;28;20041;-37
2022/07/18 03:12:59;;;;;;;3.63;1.67;;;;;;;;;;5034694;28;20013;-38
2022/07/18 03:15:25;;;;;;;3.25;1.35;;;;;;;;;;5033131;28;20399;-37
2022/07/18 03:17:50;;;;;;;3.92;1.38;;;;;;;;;;5034655;28;20025;-37
2022/07/18 03:20:15;;;;;;;9.80;1.33;;;;;;;;;;5034357;28;20437;-36
2022/07/18 03:22:41;;;;;;;3.22;1.20;;;;;;;;;;5033063;28;20024;-37
2022/07/18 03:25:06;;;;;;;4.68;1.52;;;;;;;;;;5034055;28;20037;-39
2022/07/18 03:27:32;;;;;;;6.43;1.60;;;;;;;;;;5033927;28;20093;-36
2022/07/18 03:29:57;;;;;;;5.22;1.58;;;;;;;;;;5034309;28;20088;-38
2022/07/18 03:32:23;;;;;;;2.10;1.15;;;;;;;;;;5034112;28;20060;-37
2022/07/18 03:34:48;;;;;;;3.28;1.30;;;;;;;;;;5034172;28;20018;-37
2022/07/18 03:37:13;;;;;;;2.65;1.30;;;;;;;;;;5032450;28;20453;-37
2022/07/18 03:39:39;;;;;;;2.25;1.20;;;;;;;;;;5032533;28;20033;-36
2022/07/18 03:42:04;;;;;;;5.97;1.33;;;;;;;;;;5034174;28;20036;-37
2022/07/18 03:44:29;;;;;;;2.88;1.48;;;;;;;;;;5032753;28;20366;-38
2022/07/18 03:46:55;;;;;;;4.47;1.42;;;;;;;;;;5034059;28;20046;-37
2022/07/18 03:49:20;;;;;;;5.18;1.80;;;;;;;;;;5033516;28;20017;-37
2022/07/18 03:51:46;;;;;;;3.58;1.08;;;;;;;;;;5033878;28;20026;-37
2022/07/18 03:54:11;;;;;;;7.22;1.45;;;;;;;;;;5032231;28;20021;-37
2022/07/18 03:56:37;;;;;;;7.68;2.33;;;;;;;;;;5033588;28;20428;-37
2022/07/18 03:59:02;;;;;;;3.58;1.77;;;;;;;;;;5032623;28;20163;-37
2022/07/18 04:01:27;;;;;;;8.45;1.27;;;;;;;;;;5033545;28;20341;-37
2022/07/18 04:03:53;;;;;;;7.55;1.50;;;;;;;;;;5033387;28;20468;-37
2022/07/18 04:06:19;;;;;;;4.80;1.30;;;;;;;;;;5033609;28;20030;-37
2022/07/18 04:08:44;;;;;;;5.95;1.30;;;;;;;;;;5033616;28;20075;-37
2022/07/18 04:11:09;;;;;;;5.63;1.48;;;;;;;;;;5033317;28;20495;-37
2022/07/18 04:13:35;;;;;;;4.40;1.13;;;;;;;;;;5033395;28;20096;-37
2022/07/18 04:16:00;;;;;;;5.90;1.50;;;;;;;;;;5033074;28;20053;-37
2022/07/18 04:18:25;;;;;;;12.30;2.10;;;;;;;;;;5033261;28;20116;-37
2022/07/18 04:20:51;;;;;;;55.80;4.47;;;;;;;;;;5033435;28;20033;-37
2022/07/18 04:23:18;;;;;;;30.38;2.58;;;;;;;;;;5033264;28;20443;-37
2022/07/18 04:25:43;;;;;;;30.42;2.53;;;;;;;;;;5032789;28;20029;-37
2022/07/18 04:28:10;;;;;;;13.95;2.05;;;;;;;;;;5033362;28;20389;-38
2022/07/18 04:30:36;;;;;;;12.18;3.72;;;;;;;;;;5033096;28;20034;-37
2022/07/18 04:33:02;;;;;;;5.90;1.40;;;;;;;;;;5033337;28;20024;-37
2022/07/18 04:35:27;;;;;;;4.85;1.45;;;;;;;;;;5032954;28;20064;-37
2022/07/18 04:37:53;;;;;;;13.57;1.95;;;;;;;;;;5032759;28;20045;-38
2022/07/18 04:40:18;;;;;;;7.72;1.23;;;;;;;;;;5031337;28;20028;-39
2022/07/18 04:42:44;;;;;;;9.38;1.60;;;;;;;;;;5033443;28;20097;-37
2022/07/18 04:45:10;;;;;;;6.10;1.40;;;;;;;;;;5032740;28;20366;-37
2022/07/18 04:47:35;;;;;;;6.00;1.15;;;;;;;;;;5031391;28;20550;-37
2022/07/18 04:50:01;;;;;;;5.93;1.42;;;;;;;;;;5032568;28;20061;-37
2022/07/18 04:52:26;;;;;;;5.28;1.17;;;;;;;;;;5032673;28;20029;-37
2022/07/18 04:54:51;;;;;;;10.00;1.73;;;;;;;;;;5032330;28;20025;-37
2022/07/18 04:57:17;;;;;;;4.65;1.42;;;;;;;;;;5032421;28;20057;-38
2022/07/18 04:59:43;;;;;;;4.00;1.52;;;;;;;;;;5032659;28;20476;-37
2022/07/18 05:02:09;;;;;;;3.05;1.30;;;;;;;;;;5032343;28;20026;-37
2022/07/18 05:04:35;;;;;;;5.53;1.35;;;;;;;;;;5032095;28;20036;-38
2022/07/18 05:07:00;;;;;;;5.30;1.42;;;;;;;;;;5032725;28;20065;-37
2022/07/18 05:09:26;;;;;;;5.88;1.48;;;;;;;;;;5032052;28;20088;-37
2022/07/18 05:11:51;;;;;;;16.20;1.75;;;;;;;;;;5032410;28;20029;-37
2022/07/18 05:14:17;;;;;;;3.22;1.00;;;;;;;;;;5032053;28;20021;-40
2022/07/18 05:16:42;;;;;;;3.25;1.05;;;;;;;;;;5032280;28;20036;-37
2022/07/18 05:19:07;;;;;;;8.13;1.20;;;;;;;;;;5030896;28;20385;-39
2022/07/18 05:21:33;;;;;;;3.20;0.90;;;;;;;;;;5031869;28;20028;-37
2022/07/18 05:23:58;;;;;;;9.33;1.40;;;;;;;;;;5032229;28;20029;-39
2022/07/18 05:26:23;;;;;;;4.68;1.00;;;;;;;;;;5031609;28;20243;-38
2022/07/18 05:28:49;;;;;;;10.90;1.65;;;;;;;;;;5032512;28;20021;-37
2022/07/18 05:31:14;;;;;;;9.63;1.67;;;;;;;;;;5032107;28;20032;-37
2022/07/18 05:33:39;;;;;;;4.05;1.25;;;;;;;;;;5031829;28;20013;-37
2022/07/18 05:36:05;;;;;;;10.00;1.77;;;;;;;;;;5031941;28;20017;-37
2022/07/18 05:38:30;;;;;;;5.78;1.15;;;;;;;;;;5031535;28;20350;-37
2022/07/18 05:40:56;;;;;;;11.05;1.75;;;;;;;;;;5030473;28;20029;-37
2022/07/18 05:43:21;;;;;;;5.93;1.27;;;;;;;;;;5025955;28;20079;-39
2022/07/18 05:45:46;;;;;;;11.63;2.63;;;;;;;;;;5021273;28;20045;-39
2022/07/18 05:48:11;;;;;;;3.97;1.67;;;;;;;;;;5031022;28;20029;-38
2022/07/18 05:50:37;;;;;;;7.15;1.30;;;;;;;;;;5028885;28;20025;-38
2022/07/18 05:53:02;;;;;;;6.50;1.15;;;;;;;;;;5031012;28;20028;-40
2022/07/18 05:55:27;;;;;;;7.53;1.45;;;;;;;;;;5030851;28;20070;-38
2022/07/18 05:57:53;;;;;;;8.25;1.35;;;;;;;;;;5028094;28;20017;-40
2022/07/18 06:00:19;;;;;;;7.32;1.90;;;;;;;;;;5031169;28;20411;-39
2022/07/18 06:02:46;;;;;;;10.63;2.35;;;;;;;;;;5029090;28;20461;-38
2022/07/18 06:05:12;;;;;;;5.32;1.40;;;;;;;;;;5030971;28;20578;-38
2022/07/18 06:07:37;;;;;;;15.15;2.20;;;;;;;;;;5029647;28;20045;-38
2022/07/18 06:10:03;;;;;;;17.65;1.73;;;;;;;;;;5030047;28;20547;-38
2022/07/18 06:12:29;;;;;;;9.98;1.38;;;;;;;;;;5027886;28;20089;-37
2022/07/18 06:14:54;;;;;;;9.93;1.60;;;;;;;;;;5027710;28;20046;-40
2022/07/18 06:17:20;;;;;;;8.13;1.95;;;;;;;;;;5027955;28;20025;-38
2022/07/18 06:19:45;;;;;;;14.18;2.05;;;;;;;;;;5027678;28;20025;-38
2022/07/18 06:22:10;;;;;;;16.33;1.95;;;;;;;;;;5025773;28;20464;-37
2022/07/18 06:24:36;;;;;;;5.65;1.52;;;;;;;;;;5030301;28;20100;-38
2022/07/18 06:27:01;;;;;;;3.85;1.00;;;;;;;;;;5030406;28;20052;-36
2022/07/18 06:29:27;;;;;;;9.43;1.45;;;;;;;;;;5030936;28;20109;-38
2022/07/18 06:31:52;;;;;;;4.70;1.30;;;;;;;;;;5030540;28;20108;-37
2022/07/18 06:34:17;;;;;;;5.65;1.15;;;;;;;;;;5030883;28;20457;-37
2022/07/18 06:36:43;;;;;;;26.10;3.67;;;;;;;;;;5029502;28;20028;-37
2022/07/18 06:39:10;;;;;;;5.07;1.40;;;;;;;;;;5030764;28;20029;-38
2022/07/18 06:41:36;;;;;;;4.20;1.02;;;;;;;;;;5030143;28;20372;-37
2022/07/18 06:44:02;;;;;;;5.63;1.10;;;;;;;;;;5030566;28;20061;-37
2022/07/18 06:46:27;;;;;;;8.77;1.38;;;;;;;;;;5030664;28;20539;-38
2022/07/18 06:48:52;;;;;;;8.60;1.43;;;;;;;;;;5030607;28;20420;-36
2022/07/18 06:51:18;;;;;;;4.82;1.17;;;;;;;;;;5029182;28;20030;-41
2022/07/18 06:53:43;;;;;;;8.10;1.23;;;;;;;;;;5017276;28;20022;-37
2022/07/18 06:56:08;;;;;;;5.35;1.00;;;;;;;;;;5013745;28;20022;-39
2022/07/18 06:58:34;;;;;;;4.43;1.15;;;;;;;;;;5028370;28;20017;-37
2022/07/18 07:00:59;;;;;;;6.00;1.02;;;;;;;;;;5028279;28;20380;-37
2022/07/18 07:03:24;;;;;;;3.05;1.00;;;;;;;;;;5024915;28;20029;-37
2022/07/18 07:05:50;;;;;;;15.55;1.40;;;;;;;;;;5019056;28;20078;-38
2022/07/18 07:08:15;;;;;;;4.93;1.10;;;;;;;;;;5015083;28;20021;-40
2022/07/18 07:10:41;;;;;;;5.77;0.87;;;;;;;;;;5020447;28;20071;-37
2022/07/18 07:13:07;;;;;;;4.40;1.08;;;;;;;;;;5029668;28;20243;-37
2022/07/18 07:15:32;;;;;;;2.65;0.95;;;;;;;;;;5030658;28;20112;-39
2022/07/18 07:17:57;;;;;;;4.38;0.90;;;;;;;;;;5030221;28;20021;-41
2022/07/18 07:20:23;;;;;;;4.20;1.88;;;;;;;;;;5034027;28;20021;-37
2022/07/18 07:22:49;;;;;;;29.60;2.25;;;;;;;;;;5033670;28;20025;-37
2022/07/18 07:25:16;;;;;;;6.55;0.95;;;;;;;;;;5033566;28;20021;-38
2022/07/18 07:27:41;;;;;;;7.32;1.42;;;;;;;;;;5031989;28;20021;-37
2022/07/18 07:30:07;;;;;;;10.45;1.70;;;;;;;;;;5033752;28;20043;-37
2022/07/18 07:32:36;;;;;;;3.30;1.20;;;;;;;;;;5033826;28;20041;-38
2022/07/18 07:35:10;;;;;;;8.48;1.20;;;;;;;;;;5032392;28;20037;-37
2022/07/18 07:37:36;;;;;;;2.58;0.98;;;;;;;;;;5033762;28;20030;-37
2022/07/18 07:40:02;;;;;;;6.68;1.20;;;;;;;;;;5033409;28;20071;-38
2022/07/18 07:42:27;;;;;;;3.95;1.00;;;;;;;;;;5033024;28;20025;-37
2022/07/18 07:44:52;;;;;;;2.97;1.10;;;;;;;;;;5031882;28;20025;-37
2022/07/18 07:47:17;;;;;;;2.92;1.17;;;;;;;;;;5033375;28;20052;-42
2022/07/18 07:49:43;;;;;;;7.63;1.20;;;;;;;;;;5033367;28;20037;-37
2022/07/18 07:52:08;;;;;;;1.85;1.10;;;;;;;;;;5033094;28;20104;-40
2022/07/18 07:54:34;;;;;;;3.78;1.13;;;;;;;;;;5032864;28;20100;-37
2022/07/18 07:56:59;;;;;;;2.03;0.85;;;;;;;;;;5033183;28;20028;-38
2022/07/18 07:59:25;;;;;;;3.58;1.00;;;;;;;;;;5032147;28;20147;-37
2022/07/18 08:01:50;;;;;;;2.28;1.13;;;;;;;;;;5033074;28;20044;-37
2022/07/18 08:04:15;;;;;;;3.57;1.30;;;;;;;;;;5032555;28;20021;-38
2022/07/18 08:06:41;;;;;;;3.03;1.02;;;;;;;;;;5033373;28;20239;-37
2022/07/18 08:09:08;;;;;;;1.60;0.87;;;;;;;;;;5032893;28;20025;-38
2022/07/18 08:11:33;;;;;;;2.15;1.00;;;;;;;;;;5032930;28;20263;-38
2022/07/18 08:13:59;;;;;;;3.58;1.15;;;;;;;;;;5033011;28;20025;-37
2022/07/18 08:16:24;;;;;;;5.15;1.38;;;;;;;;;;5033121;28;20021;-37
2022/07/18 08:18:49;;;;;;;3.55;1.00;;;;;;;;;;5032723;28;20026;-41
2022/07/18 08:21:15;;;;;;;1.85;1.00;;;;;;;;;;5032890;28;20014;-37
2022/07/18 08:23:40;;;;;;;5.32;0.98;;;;;;;;;;5032585;28;20021;-37
2022/07/18 08:26:05;;;;;;;3.53;0.90;;;;;;;;;;5032567;28;20021;-37
2022/07/18 08:28:31;;;;;;;1.83;0.90;;;;;;;;;;5032137;28;20459;-38
2022/07/18 08:30:56;;;;;;;2.67;0.90;;;;;;;;;;5032245;28;20032;-37
2022/07/18 08:33:21;;;;;;;6.50;1.00;;;;;;;;;;5032368;28;20020;-38
2022/07/18 08:35:47;;;;;;;4.82;1.00;;;;;;;;;;5032946;28;20254;-39
2022/07/18 08:38:12;;;;;;;5.28;1.80;;;;;;;;;;5030693;28;20025;-37
2022/07/18 08:40:38;;;;;;;2.45;0.90;;;;;;;;;;5032345;28;20412;-37
2022/07/18 08:43:03;;;;;;;3.33;0.68;;;;;;;;;;5032225;28;20029;-38
2022/07/18 08:45:29;;;;;;;5.43;1.23;;;;;;;;;;5032298;28;20514;-37
2022/07/18 08:47:55;;;;;;;3.67;0.90;;;;;;;;;;5032489;28;20025;-37
2022/07/18 08:50:20;;;;;;;3.33;0.73;;;;;;;;;;5031881;28;20294;-38
2022/07/18 08:52:46;;;;;;;5.50;1.10;;;;;;;;;;5031738;28;20033;-38
2022/07/18 08:55:11;;;;;;;2.38;0.90;;;;;;;;;;5031792;28;20025;-37
2022/07/18 08:57:37;;;;;;;3.33;0.77;;;;;;;;;;5030946;28;20071;-37
2022/07/18 09:00:06;;;;;;;3.80;1.10;;;;;;;;;;5030962;28;20021;-36
2022/07/18 09:02:31;;;;;;;1.48;0.90;;;;;;;;;;5030048;28;20126;-38
2022/07/18 09:04:59;;;;;;;6.30;1.10;;;;;;;;;;5031410;28;20492;-38
2022/07/18 09:07:34;;;;;;;5.73;0.80;;;;;;;;;;5032145;28;20087;-37
2022/07/18 09:10:02;;;;;;;5.13;1.40;;;;;;;;;;5031475;28;20029;-38
2022/07/18 09:12:28;;;;;;;1.90;0.82;;;;;;;;;;5031691;28;20068;-37
2022/07/18 09:14:53;;;;;;;2.92;0.85;;;;;;;;;;5031444;28;20045;-36
2022/07/18 09:17:22;;;;;;;5.28;0.90;;;;;;;;;;5031632;28;20022;-39
2022/07/18 09:20:08;;;;;;;3.47;0.82;;;;;;;;;;5031495;28;20386;-37
2022/07/18 09:22:35;;;;;;;5.07;1.20;;;;;;;;;;5031241;28;20033;-38
2022/07/18 09:25:03;;;;;;;2.42;1.20;;;;;;;;;;5031375;28;20431;-40
2022/07/18 09:27:30;;;;;;;6.35;1.35;;;;;;;;;;5029932;28;20071;-39
2022/07/18 09:30:15;;;;;;;1.95;0.80;;;;;;;;;;5029933;28;20124;-37
2022/07/18 09:32:41;;;;;;;3.95;1.00;;;;;;;;;;5031618;28;20025;-38
2022/07/18 09:35:08;;;;;;;4.03;0.90;;;;;;;;;;5031193;28;20013;-37
2022/07/18 09:37:34;;;;;;;5.80;0.93;;;;;;;;;;5031756;28;20075;-37
2022/07/18 09:40:15;;;;;;;9.32;1.25;;;;;;;;;;5030836;28;20022;-39
2022/07/18 09:42:40;;;;;;;2.95;1.00;;;;;;;;;;5029893;28;20075;-37
2022/07/18 09:45:06;;;;;;;4.80;1.10;;;;;;;;;;5031258;28;20029;-36
2022/07/18 09:47:31;;;;;;;8.63;1.00;;;;;;;;;;5030726;28;20049;-36
2022/07/18 09:49:57;;;;;;;1.48;1.02;;;;;;;;;;5029482;28;20080;-38
2022/07/18 09:52:22;;;;;;;3.72;1.00;;;;;;;;;;5029744;28;20469;-39
2022/07/18 09:54:47;;;;;;;3.75;1.05;;;;;;;;;;5029046;28;20051;-40
2022/07/18 09:57:26;;;;;;;1.90;0.90;;;;;;;;;;5030170;28;20104;-37
2022/07/18 09:59:52;;;;;;;1.45;0.65;;;;;;;;;;5029827;28;20033;-37
2022/07/18 10:02:17;;;;;;;2.80;0.88;;;;;;;;;;5029927;28;20483;-37
2022/07/18 10:04:43;;;;;;;3.72;1.27;;;;;;;;;;5030414;28;20401;-37
2022/07/18 10:07:09;;;;;;;4.65;1.75;;;;;;;;;;5031187;28;20033;-36
2022/07/18 10:09:37;;;;;;;1.33;0.75;;;;;;;;;;5031030;28;20108;-37
2022/07/18 10:12:03;;;;;;;1.38;0.98;;;;;;;;;;5018214;28;20076;-37
2022/07/18 10:14:29;;;;;;;6.57;0.80;;;;;;;;;;5030403;28;20030;-36
2022/07/18 10:16:55;;;;;;;3.38;0.88;;;;;;;;;;5030686;28;20521;-36
2022/07/18 10:19:20;;;;;;;1.35;0.98;;;;;;;;;;5031120;28;20100;-37
2022/07/18 10:21:48;;;;;;;3.25;0.88;;;;;;;;;;5027080;28;20024;-37
2022/07/18 10:24:16;;;;;;;3.08;0.68;;;;;;;;;;5019601;28;20030;-36
2022/07/18 10:26:41;;;;;;;3.20;0.97;;;;;;;;;;5011251;28;20075;-37
2022/07/18 10:29:07;;;;;;;3.25;0.95;;;;;;;;;;5010761;28;20450;-40
2022/07/18 10:31:37;;;;;;;3.07;0.80;;;;;;;;;;5010599;28;20041;-36
2022/07/18 10:34:05;;;;;;;3.95;0.93;;;;;;;;;;5028246;28;20271;-37
2022/07/18 10:36:31;;;;;;;1.88;0.68;;;;;;;;;;5042553;28;20018;-37
2022/07/18 10:39:09;;;;;;;4.57;1.17;;;;;;;;;;5010762;28;20037;-37
2022/07/18 10:41:43;;;;;;;1.42;0.63;;;;;;;;;;5010465;28;20061;-37
2022/07/18 10:44:35;;;;;;;4.53;0.70;;;;;;;;;;5019435;28;20033;-38
2022/07/18 10:47:08;;;;;;;3.28;0.80;;;;;;;;;;5010562;28;20551;-39
2022/07/18 10:49:57;;;;;;;28.58;1.85;;;;;;;;;;5010027;28;20088;-37
2022/07/18 10:52:26;;;;;;;4.30;0.88;;;;;;;;;;5008903;28;20030;-37
2022/07/18 10:55:08;;;;;;;4.43;0.90;;;;;;;;;;5024617;28;20100;-39
2022/07/18 10:57:40;;;;;;;2.25;0.82;;;;;;;;;;5027160;28;20492;-37
2022/07/18 11:00:08;;;;;;;3.22;1.05;;;;;;;;;;5034220;28;20029;-39
2022/07/18 11:02:47;;;;;;;6.37;0.83;;;;;;;;;;5032842;28;20021;-39
2022/07/18 11:05:27;;;;;;;1.90;0.80;;;;;;;;;;5025493;28;20112;-40
2022/07/18 11:07:58;;;;;;;1.35;0.77;;;;;;;;;;5014340;28;20092;-40
2022/07/18 11:10:51;;;;;;;1.95;0.70;;;;;;;;;;5026932;28;20041;-38
2022/07/18 11:13:28;;;;;;;2.40;0.80;;;;;;;;;;5032799;28;20029;-38
2022/07/18 11:16:12;;;;;;;3.15;0.80;;;;;;;;;;5032172;28;20025;-38
2022/07/18 11:18:40;;;;;;;4.80;1.08;;;;;;;;;;5033900;28;20021;-37
2022/07/18 11:21:15;;;;;;;4.20;1.10;;;;;;;;;;5033800;28;20538;-37
2022/07/18 11:23:41;;;;;;;3.20;0.90;;;;;;;;;;5033200;28;20587;-39
2022/07/18 11:26:13;;;;;;;2.25;0.85;;;;;;;;;;5033905;28;20024;-39
2022/07/18 11:28:39;;;;;;;2.20;0.75;;;;;;;;;;5033943;28;20025;-38
2022/07/18 11:31:05;;;;;;;5.35;1.10;;;;;;;;;;5033239;28;20037;-37
2022/07/18 11:33:32;;;;;;;2.28;0.85;;;;;;;;;;5033350;28;20064;-38
2022/07/18 11:36:08;;;;;;;4.90;1.02;;;;;;;;;;5032354;28;20029;-38
2022/07/18 11:38:38;;;;;;;1.10;0.75;;;;;;;;;;5032260;28;20062;-40
2022/07/18 11:41:03;;;;;;;17.05;3.65;;;;;;;;;;5033445;28;20029;-38
2022/07/18 11:43:29;;;;;;;3.80;1.05;;;;;;;;;;5032947;28;20025;-40
2022/07/18 11:46:08;;;;;;;6.63;0.80;;;;;;;;;;5032073;28;20052;-39
2022/07/18 11:48:34;;;;;;;2.72;1.10;;;;;;;;;;5033402;28;20029;-39
2022/07/18 11:50:59;;;;;;;2.25;0.90;;;;;;;;;;5032080;28;20115;-37
2022/07/18 11:53:25;;;;;;;8.57;1.30;;;;;;;;;;5032596;28;20056;-37
2022/07/18 11:55:52;;;;;;;1.85;0.85;;;;;;;;;;5033379;28;20021;-37
2022/07/18 11:58:18;;;;;;;2.05;1.02;;;;;;;;;;5033134;28;20029;-39
2022/07/18 12:00:44;;;;;;;5.10;0.93;;;;;;;;;;5032997;28;20033;-38
2022/07/18 12:03:14;;;;;;;1.83;1.10;;;;;;;;;;5032549;28;20021;-38
2022/07/18 12:05:41;;;;;;;5.43;1.10;;;;;;;;;;5031256;28;20577;-38
2022/07/18 12:08:26;;;;;;;5.50;1.17;;;;;;;;;;5031769;28;20022;-38
2022/07/18 12:11:04;;;;;;;2.15;1.10;;;;;;;;;;5032961;28;20485;-38
2022/07/18 12:13:58;;;;;;;2.97;0.70;;;;;;;;;;5031023;28;20037;-38
2022/07/18 12:16:24;;;;;;;4.55;0.93;;;;;;;;;;5027510;28;20464;-38
2022/07/18 12:18:53;;;;;;;4.87;1.00;;;;;;;;;;5032963;28;20026;-37
2022/07/18 12:21:18;;;;;;;6.38;1.00;;;;;;;;;;5032966;28;20028;-38
2022/07/18 12:23:43;;;;;;;6.75;0.80;;;;;;;;;;5032243;28;20018;-40
2022/07/18 12:26:09;;;;;;;3.05;0.77;;;;;;;;;;5032138;28;20025;-41
2022/07/18 12:28:34;;;;;;;2.13;0.73;;;;;;;;;;5032299;28;20801;-37
2022/07/18 12:31:00;;;;;;;10.83;1.00;;;;;;;;;;5032458;28;20029;-39
2022/07/18 12:33:25;;;;;;;1.70;0.90;;;;;;;;;;5031933;28;20271;-38
2022/07/18 12:35:55;;;;;;;4.85;1.23;;;;;;;;;;5032593;28;20047;-37
2022/07/18 12:38:20;;;;;;;0.90;0.70;;;;;;;;;;5031160;28;20105;-38
2022/07/18 12:40:52;;;;;;;3.25;1.00;;;;;;;;;;5032349;28;20519;-37
2022/07/18 12:43:35;;;;;;;2.15;0.73;;;;;;;;;;5031407;28;20420;-38
2022/07/18 12:46:02;;;;;;;1.45;0.80;;;;;;;;;;5030984;28;20432;-37
2022/07/18 12:48:28;;;;;;;4.05;0.85;;;;;;;;;;5032268;28;20017;-38
2022/07/18 12:50:58;;;;;;;1.60;0.90;;;;;;;;;;5031999;28;20037;-40
2022/07/18 12:53:23;;;;;;;1.27;0.70;;;;;;;;;;5031373;28;20057;-38
2022/07/18 12:55:49;;;;;;;1.48;0.70;;;;;;;;;;5030682;28;20057;-38
2022/07/18 12:58:14;;;;;;;2.50;0.90;;;;;;;;;;5031642;28;20095;-39
2022/07/18 13:00:40;;;;;;;1.42;0.95;;;;;;;;;;5032166;28;20279;-38
2022/07/18 13:03:05;;;;;;;3.17;0.85;;;;;;;;;;5031578;28;20047;-39
2022/07/18 13:05:30;;;;;;;4.70;0.90;;;;;;;;;;5031777;28;20025;-38
2022/07/18 13:07:56;;;;;;;1.02;0.63;;;;;;;;;;5031970;28;20031;-39
2022/07/18 13:10:22;;;;;;;0.60;0.47;;;;;;;;;;5031314;28;20033;-38
2022/07/18 13:12:47;;;;;;;3.53;0.73;;;;;;;;;;5031779;28;20025;-39
2022/07/18 13:15:13;;;;;;;0.98;0.82;;;;;;;;;;5030290;28;20523;-38
2022/07/18 13:17:38;;;;;;;2.20;0.82;;;;;;;;;;5030945;28;20029;-39
2022/07/18 13:20:04;;;;;;;4.60;1.10;;;;;;;;;;5031487;28;20021;-38
2022/07/18 13:22:37;;;;;;;5.80;0.90;;;;;;;;;;5031335;28;20247;-43
2022/07/18 13:25:02;;;;;;;2.80;0.75;;;;;;;;;;5030985;28;20021;-38
2022/07/18 13:27:28;;;;;;;5.95;1.00;;;;;;;;;;5031156;28;20044;-38
2022/07/18 13:29:53;;;;;;;2.80;0.90;;;;;;;;;;5031453;28;20033;-38
2022/07/18 13:32:19;;;;;;;2.85;1.13;;;;;;;;;;5030021;28;20021;-40
2022/07/18 13:34:44;;;;;;;9.50;1.20;;;;;;;;;;5029533;28;20060;-39
2022/07/18 13:37:09;;;;;;;5.63;1.20;;;;;;;;;;5031580;28;20288;-38
2022/07/18 13:39:34;;;;;;;2.30;0.60;;;;;;;;;;5029775;28;20024;-44
2022/07/18 13:42:02;;;;;;;2.30;0.60;;;;;;;;;;5024063;28;20271;-40
2022/07/18 13:44:28;;;;;;;6.57;0.90;;;;;;;;;;5023634;28;20159;-42
2022/07/18 13:46:53;;;;;;;1.52;0.68;;;;;;;;;;5031165;28;20141;-42
2022/07/18 13:49:18;;;;;;;2.83;1.13;;;;;;;;;;5031184;28;20025;-39
2022/07/18 13:51:44;;;;;;;5.45;0.98;;;;;;;;;;5031040;28;20282;-43
2022/07/18 13:54:09;;;;;;;2.92;0.77;;;;;;;;;;5029920;28;20018;-39
2022/07/18 13:56:34;;;;;;;1.80;1.02;;;;;;;;;;5030778;28;20028;-39
2022/07/18 13:59:00;;;;;;;3.13;0.88;;;;;;;;;;5030996;28;20029;-38
2022/07/18 14:01:25;;;;;;;1.55;0.75;;;;;;;;;;5031140;28;20025;-38
2022/07/18 14:03:51;;;;;;;2.55;1.27;;;;;;;;;;5029841;28;20032;-38
2022/07/18 14:06:16;;;;;;;1.17;0.80;;;;;;;;;;5030949;28;20472;-38
2022/07/18 14:08:41;;;;;;;1.45;0.90;;;;;;;;;;5030068;28;20021;-41
2022/07/18 14:11:07;;;;;;;3.38;0.93;;;;;;;;;;5030462;28;20116;-40
2022/07/18 14:13:32;;;;;;;3.75;0.80;;;;;;;;;;5030297;28;20557;-38
2022/07/18 14:15:58;;;;;;;5.25;1.00;;;;;;;;;;5029361;28;20514;-39
2022/07/18 14:18:23;;;;;;;6.20;1.13;;;;;;;;;;5030947;28;20104;-39
2022/07/18 14:20:48;;;;;;;4.82;1.20;;;;;;;;;;5030917;28;20026;-38
2022/07/18 14:23:14;;;;;;;3.55;1.20;;;;;;;;;;5030458;28;20107;-38
2022/07/18 14:25:39;;;;;;;5.45;1.00;;;;;;;;;;5029379;28;20440;-37
2022/07/18 14:28:04;;;;;;;1.63;0.70;;;;;;;;;;5031638;28;20022;-37
2022/07/18 14:30:30;;;;;;;5.80;1.08;;;;;;;;;;5034226;28;20288;-41
2022/07/18 14:32:55;;;;;;;5.25;1.00;;;;;;;;;;5051132;28;20080;-38
2022/07/18 14:35:20;;;;;;;10.20;1.45;;;;;;;;;;5054573;28;20021;-38
2022/07/18 14:37:46;;;;;;;5.77;1.20;;;;;;;;;;5053947;28;20103;-40
2022/07/18 14:40:11;;;;;;;4.00;1.17;;;;;;;;;;5054916;28;20040;-38